sensor_id;sensor_type;location;lat;lon;timestamp;pressure;altitude;pressure_sealevel;temperature;humidity
68197;BME280;55019;49.382;11.358;2023-04-22T00:02:00;96158.47;;;10.81;69.86
68197;BME280;55019;49.382;11.358;2023-04-22T00:04:27;96155.25;;;10.79;69.63
68197;BME280;55019;49.382;11.358;2023-04-22T00:06:53;96156.50;;;10.83;69.60
68197;BME280;55019;49.382;11.358;2023-04-22T00:09:18;96153.56;;;10.86;69.53
68197;BME280;55019;49.382;11.358;2023-04-22T00:11:44;96150.91;;;10.79;70.10
68197;BME280;55019;49.382;11.358;2023-04-22T00:14:09;96152.03;;;10.77;69.38
68197;BME280;55019;49.382;11.358;2023-04-22T00:16:35;96143.94;;;10.80;69.43
68197;BME280;55019;49.382;11.358;2023-04-22T00:19:01;96140.47;;;10.87;69.33
68197;BME280;55019;49.382;11.358;2023-04-22T00:21:26;96140.44;;;10.73;69.34
68197;BME280;55019;49.382;11.358;2023-04-22T00:23:53;96146.75;;;10.70;70.21
68197;BME280;55019;49.382;11.358;2023-04-22T00:26:18;96138.13;;;10.78;70.03
68197;BME280;55019;49.382;11.358;2023-04-22T00:28:45;96131.09;;;10.72;69.80
68197;BME280;55019;49.382;11.358;2023-04-22T00:31:10;96142.50;;;10.77;69.77
68197;BME280;55019;49.382;11.358;2023-04-22T00:33:36;96141.25;;;10.73;69.89
68197;BME280;55019;49.382;11.358;2023-04-22T00:36:02;96141.41;;;10.72;70.07
68197;BME280;55019;49.382;11.358;2023-04-22T00:38:28;96137.16;;;10.79;69.71
68197;BME280;55019;49.382;11.358;2023-04-22T00:40:54;96135.28;;;10.73;69.98
68197;BME280;55019;49.382;11.358;2023-04-22T00:43:20;96140.72;;;10.78;69.56
68197;BME280;55019;49.382;11.358;2023-04-22T00:45:46;96134.56;;;10.79;69.92
68197;BME280;55019;49.382;11.358;2023-04-22T00:48:12;96138.94;;;10.78;69.56
68197;BME280;55019;49.382;11.358;2023-04-22T00:50:38;96138.69;;;10.73;69.43
68197;BME280;55019;49.382;11.358;2023-04-22T00:53:04;96140.91;;;10.76;69.83
68197;BME280;55019;49.382;11.358;2023-04-22T00:55:29;96130.66;;;10.83;69.51
68197;BME280;55019;49.382;11.358;2023-04-22T00:57:57;96133.78;;;10.78;69.33
68197;BME280;55019;49.382;11.358;2023-04-22T01:00:25;96134.56;;;10.79;69.47
68197;BME280;55019;49.382;11.358;2023-04-22T01:02:56;96130.41;;;10.55;69.76
68197;BME280;55019;49.382;11.358;2023-04-22T01:05:23;96132.75;;;10.65;69.66
68197;BME280;55019;49.382;11.358;2023-04-22T01:07:50;96136.03;;;10.59;70.11
68197;BME280;55019;49.382;11.358;2023-04-22T01:10:16;96140.50;;;10.65;69.77
68197;BME280;55019;49.382;11.358;2023-04-22T01:12:43;96143.16;;;10.57;69.91
68197;BME280;55019;49.382;11.358;2023-04-22T01:15:09;96143.78;;;10.59;70.32
68197;BME280;55019;49.382;11.358;2023-04-22T01:17:36;96151.53;;;10.59;69.98
68197;BME280;55019;49.382;11.358;2023-04-22T01:20:01;96154.13;;;10.59;70.19
68197;BME280;55019;49.382;11.358;2023-04-22T01:22:35;96150.38;;;10.61;69.41
68197;BME280;55019;49.382;11.358;2023-04-22T01:25:05;96142.88;;;10.52;69.75
68197;BME280;55019;49.382;11.358;2023-04-22T01:27:31;96146.09;;;10.54;69.76
68197;BME280;55019;49.382;11.358;2023-04-22T01:29:57;96136.38;;;10.56;69.49
68197;BME280;55019;49.382;11.358;2023-04-22T01:32:23;96139.03;;;10.48;69.94
68197;BME280;55019;49.382;11.358;2023-04-22T01:34:49;96137.47;;;10.39;69.31
68197;BME280;55019;49.382;11.358;2023-04-22T01:37:16;96136.84;;;10.37;69.91
68197;BME280;55019;49.382;11.358;2023-04-22T01:39:42;96125.88;;;10.35;69.80
68197;BME280;55019;49.382;11.358;2023-04-22T01:42:08;96119.91;;;10.34;70.10
68197;BME280;55019;49.382;11.358;2023-04-22T01:44:35;96119.16;;;10.26;70.52
68197;BME280;55019;49.382;11.358;2023-04-22T01:47:00;96120.81;;;10.19;70.89
68197;BME280;55019;49.382;11.358;2023-04-22T01:49:26;96129.69;;;10.16;70.66
68197;BME280;55019;49.382;11.358;2023-04-22T01:51:52;96120.66;;;10.20;70.89
68197;BME280;55019;49.382;11.358;2023-04-22T01:54:18;96123.69;;;10.24;70.44
68197;BME280;55019;49.382;11.358;2023-04-22T01:56:52;96127.81;;;10.33;69.61
68197;BME280;55019;49.382;11.358;2023-04-22T01:59:19;96132.75;;;10.20;70.03
68197;BME280;55019;49.382;11.358;2023-04-22T02:01:45;96132.75;;;10.20;70.22
68197;BME280;55019;49.382;11.358;2023-04-22T02:04:11;96137.91;;;10.20;70.39
68197;BME280;55019;49.382;11.358;2023-04-22T02:06:37;96138.75;;;10.20;70.41
68197;BME280;55019;49.382;11.358;2023-04-22T02:09:05;96131.84;;;10.13;70.30
68197;BME280;55019;49.382;11.358;2023-04-22T02:11:30;96133.09;;;10.17;70.65
68197;BME280;55019;49.382;11.358;2023-04-22T02:13:56;96143.44;;;10.17;70.64
68197;BME280;55019;49.382;11.358;2023-04-22T02:16:23;96135.06;;;10.15;70.52
68197;BME280;55019;49.382;11.358;2023-04-22T02:18:49;96137.78;;;10.13;70.49
68197;BME280;55019;49.382;11.358;2023-04-22T02:21:15;96142.16;;;10.13;69.79
68197;BME280;55019;49.382;11.358;2023-04-22T02:23:41;96142.78;;;10.15;70.19
68197;BME280;55019;49.382;11.358;2023-04-22T02:26:07;96136.09;;;10.06;70.36
68197;BME280;55019;49.382;11.358;2023-04-22T02:28:33;96132.22;;;9.94;70.35
68197;BME280;55019;49.382;11.358;2023-04-22T02:30:59;96132.91;;;9.88;70.72
68197;BME280;55019;49.382;11.358;2023-04-22T02:33:25;96133.03;;;9.95;70.23
68197;BME280;55019;49.382;11.358;2023-04-22T02:35:52;96131.25;;;10.03;70.19
68197;BME280;55019;49.382;11.358;2023-04-22T02:38:18;96131.91;;;9.97;70.02
68197;BME280;55019;49.382;11.358;2023-04-22T02:40:44;96139.97;;;10.02;70.09
68197;BME280;55019;49.382;11.358;2023-04-22T02:43:10;96137.88;;;9.98;70.41
68197;BME280;55019;49.382;11.358;2023-04-22T02:45:36;96137.72;;;9.91;70.19
68197;BME280;55019;49.382;11.358;2023-04-22T02:48:02;96138.53;;;9.92;70.10
68197;BME280;55019;49.382;11.358;2023-04-22T02:50:28;96147.41;;;9.89;70.68
68197;BME280;55019;49.382;11.358;2023-04-22T02:52:53;96145.34;;;9.85;71.07
68197;BME280;55019;49.382;11.358;2023-04-22T02:55:19;96148.88;;;9.92;70.08
68197;BME280;55019;49.382;11.358;2023-04-22T02:57:46;96145.34;;;9.85;70.74
68197;BME280;55019;49.382;11.358;2023-04-22T03:00:12;96150.34;;;9.86;70.55
68197;BME280;55019;49.382;11.358;2023-04-22T03:02:38;96146.63;;;9.89;70.12
68197;BME280;55019;49.382;11.358;2023-04-22T03:05:07;96158.25;;;9.85;69.97
68197;BME280;55019;49.382;11.358;2023-04-22T03:07:34;96151.00;;;9.80;70.57
68197;BME280;55019;49.382;11.358;2023-04-22T03:10:00;96154.91;;;9.76;70.89
68197;BME280;55019;49.382;11.358;2023-04-22T03:12:29;96147.63;;;9.80;70.32
68197;BME280;55019;49.382;11.358;2023-04-22T03:14:56;96162.69;;;9.68;71.18
68197;BME280;55019;49.382;11.358;2023-04-22T03:17:25;96155.22;;;9.73;70.29
68197;BME280;55019;49.382;11.358;2023-04-22T03:19:51;96149.94;;;9.67;70.50
68197;BME280;55019;49.382;11.358;2023-04-22T03:22:16;96162.53;;;9.62;70.19
68197;BME280;55019;49.382;11.358;2023-04-22T03:24:42;96150.16;;;9.57;71.05
68197;BME280;55019;49.382;11.358;2023-04-22T03:27:09;96154.97;;;9.60;70.86
68197;BME280;55019;49.382;11.358;2023-04-22T03:29:34;96148.88;;;9.53;70.76
68197;BME280;55019;49.382;11.358;2023-04-22T03:32:00;96155.63;;;9.54;70.76
68197;BME280;55019;49.382;11.358;2023-04-22T03:34:26;96148.53;;;9.56;71.12
68197;BME280;55019;49.382;11.358;2023-04-22T03:36:52;96149.53;;;9.47;71.34
68197;BME280;55019;49.382;11.358;2023-04-22T03:39:18;96149.53;;;9.47;71.36
68197;BME280;55019;49.382;11.358;2023-04-22T03:41:44;96145.84;;;9.42;71.75
68197;BME280;55019;49.382;11.358;2023-04-22T03:44:10;96149.44;;;9.33;72.40
68197;BME280;55019;49.382;11.358;2023-04-22T03:46:36;96149.72;;;9.38;71.42
68197;BME280;55019;49.382;11.358;2023-04-22T03:49:16;96151.47;;;9.37;71.72
68197;BME280;55019;49.382;11.358;2023-04-22T03:51:43;96143.63;;;9.31;72.28
68197;BME280;55019;49.382;11.358;2023-04-22T03:54:12;96140.22;;;9.30;72.08
68197;BME280;55019;49.382;11.358;2023-04-22T03:56:44;96145.75;;;9.19;72.06
68197;BME280;55019;49.382;11.358;2023-04-22T03:59:10;96145.75;;;9.19;72.87
68197;BME280;55019;49.382;11.358;2023-04-22T04:01:35;96138.50;;;9.23;72.38
68197;BME280;55019;49.382;11.358;2023-04-22T04:04:04;96144.63;;;9.14;72.87
68197;BME280;55019;49.382;11.358;2023-04-22T04:06:51;96140.09;;;9.16;72.94
68197;BME280;55019;49.382;11.358;2023-04-22T04:09:16;96144.13;;;9.18;72.64
68197;BME280;55019;49.382;11.358;2023-04-22T04:11:44;96152.19;;;9.23;72.48
68197;BME280;55019;49.382;11.358;2023-04-22T04:14:11;96142.16;;;9.28;72.31
68197;BME280;55019;49.382;11.358;2023-04-22T04:16:41;96145.09;;;9.17;72.65
68197;BME280;55019;49.382;11.358;2023-04-22T04:19:13;96141.72;;;9.17;72.92
68197;BME280;55019;49.382;11.358;2023-04-22T04:21:39;96141.59;;;9.10;73.02
68197;BME280;55019;49.382;11.358;2023-04-22T04:24:06;96142.38;;;9.11;72.90
68197;BME280;55019;49.382;11.358;2023-04-22T04:26:36;96134.81;;;9.09;73.18
68197;BME280;55019;49.382;11.358;2023-04-22T04:29:09;96142.38;;;9.03;73.25
68197;BME280;55019;49.382;11.358;2023-04-22T04:31:38;96142.06;;;9.06;73.32
68197;BME280;55019;49.382;11.358;2023-04-22T04:34:04;96139.34;;;9.07;72.92
68197;BME280;55019;49.382;11.358;2023-04-22T04:36:30;96141.72;;;9.17;72.59
68197;BME280;55019;49.382;11.358;2023-04-22T04:39:07;96138.84;;;9.20;72.76
68197;BME280;55019;49.382;11.358;2023-04-22T04:41:34;96136.72;;;9.23;72.87
68197;BME280;55019;49.382;11.358;2023-04-22T04:44:00;96138.66;;;9.21;72.85
68197;BME280;55019;49.382;11.358;2023-04-22T04:46:31;96140.56;;;9.27;72.58
68197;BME280;55019;49.382;11.358;2023-04-22T04:48:59;96133.31;;;9.31;72.91
68197;BME280;55019;49.382;11.358;2023-04-22T04:51:28;96148.25;;;9.43;71.42
68197;BME280;55019;49.382;11.358;2023-04-22T04:53:57;96151.00;;;9.42;71.94
68197;BME280;55019;49.382;11.358;2023-04-22T04:56:26;96138.41;;;9.47;71.76
68197;BME280;55019;49.382;11.358;2023-04-22T04:58:52;96148.56;;;9.48;71.05
68197;BME280;55019;49.382;11.358;2023-04-22T05:01:22;96143.06;;;9.59;71.13
68197;BME280;55019;49.382;11.358;2023-04-22T05:03:49;96141.91;;;9.62;70.82
68197;BME280;55019;49.382;11.358;2023-04-22T05:06:16;96146.06;;;9.71;70.33
68197;BME280;55019;49.382;11.358;2023-04-22T05:08:48;96138.81;;;9.66;70.72
68197;BME280;55019;49.382;11.358;2023-04-22T05:11:14;96140.44;;;9.67;70.35
68197;BME280;55019;49.382;11.358;2023-04-22T05:13:41;96144.25;;;9.79;70.17
68197;BME280;55019;49.382;11.358;2023-04-22T05:16:11;96147.94;;;9.85;70.18
68197;BME280;55019;49.382;11.358;2023-04-22T05:18:37;96152.66;;;9.73;69.74
68197;BME280;55019;49.382;11.358;2023-04-22T05:21:07;96147.69;;;9.72;69.86
68197;BME280;55019;49.382;11.358;2023-04-22T05:23:33;96147.47;;;9.81;69.60
68197;BME280;55019;49.382;11.358;2023-04-22T05:26:00;96145.50;;;9.83;70.02
68197;BME280;55019;49.382;11.358;2023-04-22T05:28:26;96150.34;;;9.86;70.11
68197;BME280;55019;49.382;11.358;2023-04-22T05:30:56;96154.19;;;9.90;69.44
68197;BME280;55019;49.382;11.358;2023-04-22T05:33:23;96156.06;;;9.74;68.66
68197;BME280;55019;49.382;11.358;2023-04-22T05:35:49;96150.84;;;9.82;68.78
68197;BME280;55019;49.382;11.358;2023-04-22T05:38:16;96156.41;;;9.93;70.08
68197;BME280;55019;49.382;11.358;2023-04-22T05:40:43;96150.53;;;10.15;68.81
68197;BME280;55019;49.382;11.358;2023-04-22T05:43:11;96150.78;;;10.28;67.20
68197;BME280;55019;49.382;11.358;2023-04-22T05:45:39;96158.13;;;10.39;66.49
68197;BME280;55019;49.382;11.358;2023-04-22T05:48:07;96159.72;;;10.62;65.48
68197;BME280;55019;49.382;11.358;2023-04-22T05:50:38;96157.63;;;10.66;64.65
68197;BME280;55019;49.382;11.358;2023-04-22T05:53:06;96166.97;;;10.67;66.19
68197;BME280;55019;49.382;11.358;2023-04-22T05:55:33;96169.16;;;10.78;65.46
68197;BME280;55019;49.382;11.358;2023-04-22T05:57:59;96173.97;;;10.81;64.52
68197;BME280;55019;49.382;11.358;2023-04-22T06:00:47;96170.16;;;10.91;64.79
68197;BME280;55019;49.382;11.358;2023-04-22T06:03:35;96170.22;;;11.06;64.44
68197;BME280;55019;49.382;11.358;2023-04-22T06:06:01;96163.78;;;11.16;64.08
68197;BME280;55019;49.382;11.358;2023-04-22T06:08:29;96164.88;;;11.22;64.11
68197;BME280;55019;49.382;11.358;2023-04-22T06:10:55;96172.91;;;11.27;63.82
68197;BME280;55019;49.382;11.358;2023-04-22T06:13:22;96166.50;;;11.51;63.05
68197;BME280;55019;49.382;11.358;2023-04-22T06:15:48;96172.31;;;11.53;62.69
68197;BME280;55019;49.382;11.358;2023-04-22T06:18:14;96171.16;;;11.56;62.17
68197;BME280;55019;49.382;11.358;2023-04-22T06:20:39;96169.66;;;11.61;62.72
68197;BME280;55019;49.382;11.358;2023-04-22T06:23:05;96168.84;;;11.75;62.07
68197;BME280;55019;49.382;11.358;2023-04-22T06:25:31;96166.63;;;11.72;61.85
68197;BME280;55019;49.382;11.358;2023-04-22T06:27:58;96169.56;;;11.84;60.02
68197;BME280;55019;49.382;11.358;2023-04-22T06:30:25;96179.72;;;11.85;61.87
68197;BME280;55019;49.382;11.358;2023-04-22T06:32:56;96175.78;;;11.89;59.87
68197;BME280;55019;49.382;11.358;2023-04-22T06:35:23;96173.53;;;12.15;62.17
68197;BME280;55019;49.382;11.358;2023-04-22T06:37:50;96169.59;;;12.19;59.31
68197;BME280;55019;49.382;11.358;2023-04-22T06:40:15;96173.66;;;12.28;59.86
68197;BME280;55019;49.382;11.358;2023-04-22T06:43:07;96173.44;;;12.44;59.62
68197;BME280;55019;49.382;11.358;2023-04-22T06:45:52;96180.00;;;12.61;58.15
68197;BME280;55019;49.382;11.358;2023-04-22T06:48:26;96173.41;;;12.80;59.02
68197;BME280;55019;49.382;11.358;2023-04-22T06:51:17;96167.78;;;12.76;57.73
68197;BME280;55019;49.382;11.358;2023-04-22T06:53:44;96176.53;;;12.96;58.79
68197;BME280;55019;49.382;11.358;2023-04-22T06:56:15;96174.41;;;12.99;57.02
68197;BME280;55019;49.382;11.358;2023-04-22T06:58:41;96175.47;;;13.11;57.95
68197;BME280;55019;49.382;11.358;2023-04-22T07:01:07;96173.84;;;13.31;56.85
68197;BME280;55019;49.382;11.358;2023-04-22T07:03:33;96173.78;;;13.52;56.25
68197;BME280;55019;49.382;11.358;2023-04-22T07:06:03;96173.06;;;13.65;57.34
68197;BME280;55019;49.382;11.358;2023-04-22T07:08:30;96162.47;;;13.66;55.89
68197;BME280;55019;49.382;11.358;2023-04-22T07:10:56;96167.25;;;13.63;56.25
68197;BME280;55019;49.382;11.358;2023-04-22T07:13:51;96173.22;;;13.97;53.48
68197;BME280;55019;49.382;11.358;2023-04-22T07:16:16;96167.00;;;14.39;54.68
68197;BME280;55019;49.382;11.358;2023-04-22T07:18:42;96155.19;;;14.30;52.34
68197;BME280;55019;49.382;11.358;2023-04-22T07:21:08;96152.19;;;14.33;53.74
68197;BME280;55019;49.382;11.358;2023-04-22T07:23:33;96159.59;;;14.36;54.12
68197;BME280;55019;49.382;11.358;2023-04-22T07:25:59;96157.69;;;15.02;54.55
68197;BME280;55019;49.382;11.358;2023-04-22T07:28:25;96155.31;;;15.07;51.06
68197;BME280;55019;49.382;11.358;2023-04-22T07:30:50;96156.28;;;15.26;51.51
68197;BME280;55019;49.382;11.358;2023-04-22T07:33:16;96152.53;;;15.35;51.37
68197;BME280;55019;49.382;11.358;2023-04-22T07:35:42;96140.84;;;15.57;50.40
68197;BME280;55019;49.382;11.358;2023-04-22T07:38:07;96141.47;;;16.15;50.06
68197;BME280;55019;49.382;11.358;2023-04-22T07:40:33;96142.75;;;16.75;48.65
68197;BME280;55019;49.382;11.358;2023-04-22T07:43:02;96148.16;;;17.29;50.23
68197;BME280;55019;49.382;11.358;2023-04-22T07:45:28;96146.09;;;17.13;46.04
68197;BME280;55019;49.382;11.358;2023-04-22T07:47:53;96140.66;;;16.90;45.90
68197;BME280;55019;49.382;11.358;2023-04-22T07:50:19;96134.75;;;16.39;48.66
68197;BME280;55019;49.382;11.358;2023-04-22T07:52:45;96138.06;;;16.15;48.96
68197;BME280;55019;49.382;11.358;2023-04-22T07:55:10;96144.47;;;16.56;48.48
68197;BME280;55019;49.382;11.358;2023-04-22T07:57:36;96144.81;;;16.29;49.94
68197;BME280;55019;49.382;11.358;2023-04-22T08:00:07;96144.66;;;16.61;50.91
68197;BME280;55019;49.382;11.358;2023-04-22T08:02:37;96141.72;;;16.45;47.58
68197;BME280;55019;49.382;11.358;2023-04-22T08:05:03;96148.72;;;17.13;47.29
68197;BME280;55019;49.382;11.358;2023-04-22T08:07:29;96153.38;;;17.29;50.27
68197;BME280;55019;49.382;11.358;2023-04-22T08:09:55;96143.22;;;17.21;46.61
68197;BME280;55019;49.382;11.358;2023-04-22T08:12:21;96148.94;;;17.53;46.67
68197;BME280;55019;49.382;11.358;2023-04-22T08:14:47;96146.91;;;17.55;46.23
68197;BME280;55019;49.382;11.358;2023-04-22T08:17:12;96161.19;;;17.11;46.50
68197;BME280;55019;49.382;11.358;2023-04-22T08:19:38;96156.47;;;16.95;47.14
68197;BME280;55019;49.382;11.358;2023-04-22T08:22:03;96158.56;;;16.86;46.63
68197;BME280;55019;49.382;11.358;2023-04-22T08:24:29;96154.06;;;17.66;47.08
68197;BME280;55019;49.382;11.358;2023-04-22T08:26:56;96150.81;;;17.89;45.05
68197;BME280;55019;49.382;11.358;2023-04-22T08:29:21;96149.56;;;17.73;44.53
68197;BME280;55019;49.382;11.358;2023-04-22T08:31:47;96145.50;;;18.31;45.63
68197;BME280;55019;49.382;11.358;2023-04-22T08:34:13;96141.31;;;18.24;44.34
68197;BME280;55019;49.382;11.358;2023-04-22T08:36:38;96148.13;;;18.13;44.06
68197;BME280;55019;49.382;11.358;2023-04-22T08:39:04;96152.59;;;18.24;43.63
68197;BME280;55019;49.382;11.358;2023-04-22T08:41:33;96149.25;;;18.35;43.18
68197;BME280;55019;49.382;11.358;2023-04-22T08:43:59;96154.47;;;18.94;44.42
68197;BME280;55019;49.382;11.358;2023-04-22T08:46:25;96155.47;;;19.34;41.54
68197;BME280;55019;49.382;11.358;2023-04-22T08:48:53;96158.22;;;19.39;42.25
68197;BME280;55019;49.382;11.358;2023-04-22T08:51:19;96142.34;;;18.70;41.82
68197;BME280;55019;49.382;11.358;2023-04-22T08:53:45;96150.13;;;18.11;44.04
68197;BME280;55019;49.382;11.358;2023-04-22T08:56:14;96149.56;;;18.86;43.16
68197;BME280;55019;49.382;11.358;2023-04-22T08:58:41;96139.72;;;19.91;42.57
68197;BME280;55019;49.382;11.358;2023-04-22T09:01:07;96144.81;;;20.48;43.58
68197;BME280;55019;49.382;11.358;2023-04-22T09:03:34;96146.63;;;20.20;40.04
68197;BME280;55019;49.382;11.358;2023-04-22T09:06:05;96138.69;;;20.04;40.27
68197;BME280;55019;49.382;11.358;2023-04-22T09:08:32;96138.22;;;20.07;40.19
68197;BME280;55019;49.382;11.358;2023-04-22T09:10:58;96144.75;;;21.32;39.84
68197;BME280;55019;49.382;11.358;2023-04-22T09:13:25;96133.53;;;20.48;40.67
68197;BME280;55019;49.382;11.358;2023-04-22T09:15:51;96135.88;;;21.05;37.93
68197;BME280;55019;49.382;11.358;2023-04-22T09:18:18;96127.34;;;20.54;38.68
68197;BME280;55019;49.382;11.358;2023-04-22T09:20:46;96135.56;;;20.85;38.07
68197;BME280;55019;49.382;11.358;2023-04-22T09:23:12;96129.97;;;20.26;38.70
68197;BME280;55019;49.382;11.358;2023-04-22T09:25:38;96126.78;;;20.24;40.20
68197;BME280;55019;49.382;11.358;2023-04-22T09:28:03;96127.16;;;21.00;39.67
68197;BME280;55019;49.382;11.358;2023-04-22T09:30:34;96126.63;;;21.52;40.06
68197;BME280;55019;49.382;11.358;2023-04-22T09:33:02;96122.91;;;21.15;36.23
68197;BME280;55019;49.382;11.358;2023-04-22T09:35:36;96125.81;;;21.68;36.05
68197;BME280;55019;49.382;11.358;2023-04-22T09:38:04;96127.84;;;21.12;37.42
68197;BME280;55019;49.382;11.358;2023-04-22T09:40:30;96110.41;;;20.61;37.87
68197;BME280;55019;49.382;11.358;2023-04-22T09:42:58;96114.84;;;20.89;39.28
68197;BME280;55019;49.382;11.358;2023-04-22T09:45:32;96112.09;;;22.04;38.13
68197;BME280;55019;49.382;11.358;2023-04-22T09:50:28;96107.09;;;22.72;35.54
68197;BME280;55019;49.382;11.358;2023-04-22T09:53:03;96110.34;;;22.52;38.44
68197;BME280;55019;49.382;11.358;2023-04-22T09:55:35;96117.13;;;21.84;37.30
68197;BME280;55019;49.382;11.358;2023-04-22T09:58:10;96109.34;;;21.73;36.70
68197;BME280;55019;49.382;11.358;2023-04-22T10:00:40;96110.38;;;23.47;36.74
68197;BME280;55019;49.382;11.358;2023-04-22T10:03:06;96102.59;;;24.18;33.21
68197;BME280;55019;49.382;11.358;2023-04-22T10:05:33;96106.72;;;23.16;34.02
68197;BME280;55019;49.382;11.358;2023-04-22T10:08:03;96103.91;;;22.96;35.64
68197;BME280;55019;49.382;11.358;2023-04-22T10:10:30;96107.78;;;22.62;33.17
68197;BME280;55019;49.382;11.358;2023-04-22T10:12:55;96094.69;;;22.41;35.76
68197;BME280;55019;49.382;11.358;2023-04-22T10:15:22;96090.69;;;22.17;36.31
68197;BME280;55019;49.382;11.358;2023-04-22T10:17:49;96096.44;;;21.71;34.84
68197;BME280;55019;49.382;11.358;2023-04-22T10:20:17;96089.91;;;21.74;35.98
68197;BME280;55019;49.382;11.358;2023-04-22T10:22:44;96093.47;;;21.84;36.08
68197;BME280;55019;49.382;11.358;2023-04-22T10:25:11;96087.84;;;21.43;37.61
68197;BME280;55019;49.382;11.358;2023-04-22T10:27:38;96089.09;;;22.37;36.44
68197;BME280;55019;49.382;11.358;2023-04-22T10:30:06;96096.63;;;22.77;34.42
68197;BME280;55019;49.382;11.358;2023-04-22T10:32:32;96090.31;;;21.66;36.91
68197;BME280;55019;49.382;11.358;2023-04-22T10:35:10;96085.78;;;22.04;37.13
68197;BME280;55019;49.382;11.358;2023-04-22T10:37:40;96090.16;;;22.94;36.49
68197;BME280;55019;49.382;11.358;2023-04-22T10:40:23;96084.19;;;22.72;33.34
68197;BME280;55019;49.382;11.358;2023-04-22T10:42:51;96095.50;;;23.31;34.37
68197;BME280;55019;49.382;11.358;2023-04-22T10:45:23;96091.34;;;23.40;32.66
68197;BME280;55019;49.382;11.358;2023-04-22T10:47:49;96078.13;;;23.03;34.60
68197;BME280;55019;49.382;11.358;2023-04-22T10:50:29;96083.72;;;23.84;31.31
68197;BME280;55019;49.382;11.358;2023-04-22T10:53:33;96074.25;;;23.93;31.74
68197;BME280;55019;49.382;11.358;2023-04-22T10:55:50;96074.91;;;24.30;34.22
68197;BME280;55019;49.382;11.358;2023-04-22T10:58:23;96068.69;;;24.76;33.19
68197;BME280;55019;49.382;11.358;2023-04-22T11:00:51;96073.88;;;25.96;32.51
68197;BME280;55019;49.382;11.358;2023-04-22T11:03:26;96068.06;;;25.94;29.02
68197;BME280;55019;49.382;11.358;2023-04-22T11:06:14;96061.53;;;26.25;30.19
68197;BME280;55019;49.382;11.358;2023-04-22T11:08:46;96059.25;;;26.13;30.14
68197;BME280;55019;49.382;11.358;2023-04-22T11:11:12;96055.53;;;26.62;31.04
68197;BME280;55019;49.382;11.358;2023-04-22T11:13:40;96059.22;;;26.18;27.54
68197;BME280;55019;49.382;11.358;2023-04-22T11:16:08;96055.47;;;26.24;28.75
68197;BME280;55019;49.382;11.358;2023-04-22T11:18:36;96056.00;;;24.98;30.08
68197;BME280;55019;49.382;11.358;2023-04-22T11:21:03;96056.22;;;25.61;30.04
68197;BME280;55019;49.382;11.358;2023-04-22T11:23:34;96062.28;;;24.42;29.77
68197;BME280;55019;49.382;11.358;2023-04-22T11:26:03;96060.56;;;23.50;31.92
68197;BME280;55019;49.382;11.358;2023-04-22T11:28:30;96056.66;;;22.85;33.00
68197;BME280;55019;49.382;11.358;2023-04-22T11:31:06;96057.81;;;22.41;34.94
68197;BME280;55019;49.382;11.358;2023-04-22T11:33:33;96056.72;;;22.95;33.50
68197;BME280;55019;49.382;11.358;2023-04-22T11:35:59;96048.19;;;21.82;35.20
68197;BME280;55019;49.382;11.358;2023-04-22T11:38:25;96051.75;;;21.71;34.90
68197;BME280;55019;49.382;11.358;2023-04-22T11:40:53;96057.66;;;22.26;34.42
68197;BME280;55019;49.382;11.358;2023-04-22T11:43:19;96051.34;;;22.80;34.95
68197;BME280;55019;49.382;11.358;2023-04-22T11:45:45;96055.63;;;23.22;35.58
68197;BME280;55019;49.382;11.358;2023-04-22T11:48:14;96062.50;;;23.23;34.93
68197;BME280;55019;49.382;11.358;2023-04-22T11:50:41;96059.56;;;22.88;33.31
68197;BME280;55019;49.382;11.358;2023-04-22T11:53:15;96042.50;;;23.73;32.73
68197;BME280;55019;49.382;11.358;2023-04-22T11:55:42;96050.72;;;24.88;34.37
68197;BME280;55019;49.382;11.358;2023-04-22T11:58:13;96051.78;;;25.02;31.42
68197;BME280;55019;49.382;11.358;2023-04-22T12:03:11;96050.44;;;24.90;30.90
68197;BME280;55019;49.382;11.358;2023-04-22T12:05:38;96042.22;;;24.46;32.85
68197;BME280;55019;49.382;11.358;2023-04-22T12:08:13;96030.88;;;23.74;32.95
68197;BME280;55019;49.382;11.358;2023-04-22T12:10:41;96042.59;;;23.93;32.06
68197;BME280;55019;49.382;11.358;2023-04-22T12:13:07;96020.09;;;23.30;32.59
68197;BME280;55019;49.382;11.358;2023-04-22T12:15:38;96024.75;;;24.35;33.29
68197;BME280;55019;49.382;11.358;2023-04-22T12:18:04;96017.38;;;24.27;33.25
68197;BME280;55019;49.382;11.358;2023-04-22T12:20:36;96026.84;;;25.58;31.10
68197;BME280;55019;49.382;11.358;2023-04-22T12:23:03;96029.03;;;25.06;30.78
68197;BME280;55019;49.382;11.358;2023-04-22T12:25:28;96021.41;;;25.19;30.47
68197;BME280;55019;49.382;11.358;2023-04-22T12:27:55;96016.25;;;25.63;31.70
68197;BME280;55019;49.382;11.358;2023-04-22T12:30:21;96018.16;;;25.47;32.24
68197;BME280;55019;49.382;11.358;2023-04-22T12:32:49;96017.56;;;25.70;30.65
68197;BME280;55019;49.382;11.358;2023-04-22T12:35:15;96017.44;;;26.54;31.55
68197;BME280;55019;49.382;11.358;2023-04-22T12:37:42;96002.91;;;25.98;30.98
68197;BME280;55019;49.382;11.358;2023-04-22T12:40:07;96012.47;;;26.80;31.77
68197;BME280;55019;49.382;11.358;2023-04-22T12:42:34;96020.59;;;25.29;30.09
68197;BME280;55019;49.382;11.358;2023-04-22T12:45:00;96009.00;;;25.98;29.25
68197;BME280;55019;49.382;11.358;2023-04-22T12:47:26;95999.28;;;25.69;30.70
68197;BME280;55019;49.382;11.358;2023-04-22T12:49:52;96014.53;;;24.69;31.44
68197;BME280;55019;49.382;11.358;2023-04-22T12:52:17;96004.47;;;24.91;31.61
68197;BME280;55019;49.382;11.358;2023-04-22T12:54:43;95998.38;;;25.15;31.38
68197;BME280;55019;49.382;11.358;2023-04-22T12:57:09;96004.50;;;24.71;30.19
68197;BME280;55019;49.382;11.358;2023-04-22T12:59:34;96011.09;;;24.93;30.92
68197;BME280;55019;49.382;11.358;2023-04-22T13:02:00;96004.22;;;24.52;29.61